Terminal Aerodrome Forecast
Issued by NWS

Home | Current Version | Previous Version | Text Only | Print | Product List | Glossary On
Versions: 1 2 3 4 5 6 7 8 9 10 11 12 13 14 15 16 17 18 19 20 21 22 23 24 25 26 27 28 29 30 31 32 33
000
FTUS43 KPAH 170300 AAA
TAFOWB
TAF AMD
KOWB 170326Z 1703/1724 28010KT P6SM OVC015
     FM171000 28004KT P6SM SCT025
     FM171500 29004KT P6SM SCT100 BKN250=

USA.gov is the U.S. government's official web portal to all federal, state and local government web resources and services.